createdAt,value
2022-09-14T00:01:43.175Z,18.30
2022-09-14T00:04:51.933Z,15.63
2022-09-14T00:07:54.336Z,18.45
2022-09-14T00:10:56.392Z,24.33
2022-09-14T00:17:06.708Z,22.88
2022-09-14T00:23:11.327Z,18.90
2022-09-14T00:26:17.220Z,16.98
2022-09-14T00:29:20.275Z,20.67
2022-09-14T00:32:22.060Z,20.00
2022-09-14T00:35:24.750Z,17.52
2022-09-14T00:38:26.632Z,18.30
2022-09-14T00:41:37.989Z,23.27
2022-09-14T00:44:39.770Z,18.27
2022-09-14T00:47:42.325Z,18.35
2022-09-14T00:50:44.772Z,19.90
2022-09-14T00:53:47.573Z,21.55
2022-09-14T00:56:50.237Z,24.13
2022-09-14T00:59:53.723Z,19.55
2022-09-14T01:02:55.810Z,21.35
2022-09-14T01:09:33.447Z,19.30
2022-09-14T01:12:36.642Z,17.60
2022-09-14T01:15:47.455Z,19.08
2022-09-14T01:19:04.976Z,19.50
2022-09-14T01:22:15.794Z,18.30
2022-09-14T01:25:37.582Z,15.90
2022-09-14T01:28:52.044Z,18.50
2022-09-14T01:32:06.076Z,20.10
2022-09-14T01:38:29.219Z,17.98
2022-09-14T01:41:32.354Z,17.48
2022-09-14T01:44:37.360Z,17.42
2022-09-14T01:47:50.091Z,19.70
2022-09-14T01:50:55.904Z,16.23
2022-09-14T01:54:09.494Z,15.10
2022-09-14T01:57:11.291Z,16.55
2022-09-14T02:00:17.560Z,17.02
2022-09-14T02:03:30.490Z,18.13
2022-09-14T02:06:43.386Z,18.23
2022-09-14T02:09:50.755Z,17.75
2022-09-14T02:12:53.790Z,19.83
2022-09-14T02:15:56.187Z,17.92
2022-09-14T02:18:58.227Z,17.38
2022-09-14T02:22:00.371Z,21.08
2022-09-14T02:25:03.754Z,23.33
2022-09-14T02:28:05.753Z,17.95
2022-09-14T02:31:25.795Z,19.48
2022-09-14T02:34:57.651Z,12.20
2022-09-14T02:38:25.784Z,15.50
2022-09-14T02:41:51.327Z,14.77
2022-09-14T02:45:10.991Z,12.35
2022-09-14T02:48:15.588Z,15.75
2022-09-14T02:51:46.310Z,12.05
2022-09-14T02:54:57.880Z,13.23
2022-09-14T02:58:11.505Z,15.35
2022-09-14T03:01:16.523Z,13.35
2022-09-14T03:04:18.491Z,14.15
2022-09-14T03:07:20.723Z,12.13
2022-09-14T03:10:22.550Z,13.68
2022-09-14T03:13:24.487Z,12.25
2022-09-14T03:16:29.136Z,15.07
2022-09-14T03:19:31.068Z,13.65
2022-09-14T03:22:33.388Z,14.23
2022-09-14T03:25:53.291Z,13.55
2022-09-14T03:28:58.012Z,13.55
2022-09-14T03:31:59.936Z,14.75
2022-09-14T03:35:01.954Z,15.02
2022-09-14T03:38:06.411Z,14.18
2022-09-14T03:41:09.727Z,16.67
2022-09-14T03:44:12.510Z,20.38
2022-09-14T03:47:15.051Z,17.73
2022-09-14T03:50:20.246Z,18.10
2022-09-14T03:53:22.239Z,18.73
2022-09-14T03:56:24.148Z,19.35
2022-09-14T03:59:26.010Z,15.25
2022-09-14T04:02:29.356Z,18.65
2022-09-14T04:05:31.269Z,17.15
2022-09-14T04:08:36.789Z,16.42
2022-09-14T04:11:38.622Z,18.55
2022-09-14T04:14:43.694Z,17.83
2022-09-14T04:17:45.748Z,19.40
2022-09-14T04:21:08.039Z,15.95
2022-09-14T04:24:15.648Z,15.20
2022-09-14T04:27:18.357Z,15.05
2022-09-14T04:30:22.075Z,14.25
2022-09-14T04:33:24.277Z,14.63
2022-09-14T04:36:28.745Z,14.38
2022-09-14T04:39:30.818Z,12.63
2022-09-14T04:45:34.628Z,10.50
2022-09-14T04:48:36.954Z,11.38
2022-09-14T04:51:42.898Z,11.23
2022-09-14T04:54:44.859Z,9.77
2022-09-14T05:00:48.613Z,10.77
2022-09-14T05:03:51.528Z,10.57
2022-09-14T05:06:53.608Z,10.02
2022-09-14T05:09:55.504Z,12.85
2022-09-14T05:12:57.490Z,9.90
2022-09-14T05:16:30.249Z,13.43
2022-09-14T05:19:32.173Z,11.90
2022-09-14T05:22:34.064Z,14.85
2022-09-14T05:25:35.907Z,13.45
2022-09-14T05:28:38.282Z,15.30
2022-09-14T05:31:41.408Z,13.50
2022-09-14T05:34:43.333Z,14.07
2022-09-14T05:37:45.573Z,13.15
2022-09-14T05:40:47.698Z,13.32
2022-09-14T05:43:50.041Z,14.70
2022-09-14T05:46:52.219Z,15.13
2022-09-14T05:52:56.233Z,16.92
2022-09-14T05:56:06.322Z,14.82
2022-09-14T05:59:08.181Z,12.75
2022-09-14T06:02:14.408Z,12.30
2022-09-14T06:05:18.851Z,13.40
2022-09-14T06:08:21.301Z,13.60
2022-09-14T06:11:26.314Z,13.93
2022-09-14T06:14:28.558Z,13.18
2022-09-14T06:17:31.952Z,12.25
2022-09-14T06:20:37.099Z,13.98
2022-09-14T06:23:39.020Z,14.27
2022-09-14T06:26:41.394Z,11.80
2022-09-14T06:29:44.821Z,12.30
2022-09-14T06:32:46.881Z,12.88
2022-09-14T06:42:46.448Z,13.77
2022-09-14T06:46:06.468Z,14.93
2022-09-14T06:49:11.965Z,21.63
2022-09-14T06:52:16.643Z,13.27
2022-09-14T06:55:20.178Z,12.90
2022-09-14T06:58:22.026Z,11.77
2022-09-14T07:01:24.240Z,13.38
2022-09-14T07:07:28.596Z,15.30
2022-09-14T07:10:30.483Z,14.27
2022-09-14T07:13:32.578Z,13.98
2022-09-14T07:19:37.457Z,13.43
2022-09-14T07:22:39.432Z,13.25
2022-09-14T07:25:41.660Z,15.07
2022-09-14T07:28:45.536Z,14.35
2022-09-14T07:31:50.206Z,15.73
2022-09-14T07:34:52.244Z,14.30
2022-09-14T07:37:55.007Z,14.20
2022-09-14T07:41:00.735Z,11.88
2022-09-14T07:44:08.365Z,11.93
2022-09-14T07:47:10.743Z,12.85
2022-09-14T07:50:12.970Z,11.48
2022-09-14T07:53:15.306Z,10.38
2022-09-14T07:56:17.450Z,10.50
2022-09-14T07:59:36.927Z,11.00
2022-09-14T08:02:39.490Z,14.00
2022-09-14T08:05:41.462Z,12.82
2022-09-14T08:08:45.460Z,13.82
2022-09-14T08:11:47.685Z,11.88
2022-09-14T08:14:51.535Z,12.50
2022-09-14T08:17:53.581Z,14.48
2022-09-14T08:20:55.713Z,12.60
2022-09-14T08:23:58.807Z,14.73
2022-09-14T08:27:06.819Z,13.55
2022-09-14T08:30:09.223Z,9.77
2022-09-14T08:33:13.225Z,12.18
2022-09-14T08:36:17.798Z,9.23
2022-09-14T08:39:19.709Z,8.65
2022-09-14T08:42:23.025Z,8.10
2022-09-14T08:45:28.347Z,8.27
2022-09-14T08:48:43.631Z,7.13
2022-09-14T08:51:49.786Z,6.70
2022-09-14T08:55:00.112Z,7.55
2022-09-14T08:58:26.788Z,9.02
2022-09-14T09:01:56.947Z,7.10
2022-09-14T09:05:13.596Z,9.30
2022-09-14T09:08:22.837Z,6.70
2022-09-14T09:11:31.777Z,6.03
2022-09-14T09:14:43.623Z,5.88
2022-09-14T09:17:50.182Z,7.13
2022-09-14T09:20:58.626Z,6.90
2022-09-14T09:24:37.552Z,5.85
2022-09-14T09:27:40.109Z,9.00
2022-09-14T09:30:43.445Z,8.32
2022-09-14T09:33:50.010Z,6.32
2022-09-14T09:36:56.954Z,6.35
2022-09-14T09:40:00.666Z,6.00
2022-09-14T09:43:21.178Z,6.07
2022-09-14T09:46:33.533Z,5.72
2022-09-14T09:49:38.638Z,7.07
2022-09-14T09:52:58.005Z,5.18
2022-09-14T09:56:05.580Z,8.25
2022-09-14T09:59:22.744Z,8.07
2022-09-14T10:02:34.527Z,6.75
2022-09-14T10:05:37.217Z,6.30
2022-09-14T10:08:47.251Z,6.85
2022-09-14T10:12:05.999Z,8.77
2022-09-14T10:15:11.752Z,5.60
2022-09-14T10:18:20.710Z,5.18
2022-09-14T10:21:24.650Z,6.60
2022-09-14T10:24:28.560Z,6.32
2022-09-14T10:27:37.592Z,5.13
2022-09-14T10:30:45.930Z,4.10
2022-09-14T10:33:52.091Z,5.55
2022-09-14T10:37:08.198Z,6.10
2022-09-14T10:40:15.962Z,8.75
2022-09-14T10:43:32.354Z,4.97
2022-09-14T10:46:47.426Z,6.47
2022-09-14T10:50:00.528Z,5.70
2022-09-14T11:03:56.900Z,7.50
2022-09-14T11:07:20.179Z,6.93
2022-09-14T11:10:25.028Z,8.65
2022-09-14T11:13:39.457Z,6.70
2022-09-14T11:17:02.079Z,4.82
2022-09-14T11:20:10.165Z,8.20
2022-09-14T11:23:30.916Z,7.38
2022-09-14T11:26:58.449Z,7.45
2022-09-14T11:30:06.021Z,6.22
2022-09-14T11:33:35.841Z,5.53
2022-09-14T11:36:44.114Z,5.93
2022-09-14T11:40:01.172Z,8.27
2022-09-14T11:43:11.589Z,5.40
2022-09-14T11:46:19.203Z,7.90
2022-09-14T11:49:39.748Z,7.15
2022-09-14T11:52:42.942Z,6.85
2022-09-14T11:55:48.579Z,6.65
2022-09-14T11:58:50.862Z,5.15
2022-09-14T12:01:53.101Z,6.53
2022-09-14T12:05:07.129Z,8.90
2022-09-14T12:08:35.858Z,7.13
2022-09-14T12:11:38.422Z,5.85
2022-09-14T12:14:41.097Z,6.82
2022-09-14T12:17:43.324Z,4.53
2022-09-14T12:20:47.966Z,8.32
2022-09-14T12:23:52.099Z,5.25
2022-09-14T12:26:54.648Z,5.20
2022-09-14T12:29:56.464Z,5.43
2022-09-14T12:36:05.383Z,5.82
2022-09-14T12:39:23.598Z,8.85
2022-09-14T12:42:29.340Z,3.50
2022-09-14T12:45:51.202Z,6.82
2022-09-14T12:49:15.121Z,4.03
2022-09-14T12:52:35.580Z,6.07
2022-09-14T12:55:56.844Z,7.72
2022-09-14T12:59:26.228Z,3.22
2022-09-14T13:02:49.475Z,3.75
2022-09-14T13:05:51.676Z,2.83
2022-09-14T13:08:57.891Z,2.88
2022-09-14T13:12:06.123Z,3.03
2022-09-14T13:15:20.841Z,4.38
2022-09-14T13:18:22.915Z,3.10
2022-09-14T13:21:25.142Z,4.70
2022-09-14T13:24:46.091Z,3.78
2022-09-14T13:27:52.543Z,3.85
2022-09-14T13:30:57.355Z,3.03
2022-09-14T13:34:01.775Z,3.05
2022-09-14T13:37:05.267Z,3.72
2022-09-14T13:40:13.615Z,4.32
2022-09-14T13:43:17.683Z,4.32
2022-09-14T13:46:20.774Z,4.03
2022-09-14T13:49:23.196Z,6.07
2022-09-14T13:52:38.557Z,4.82
2022-09-14T13:55:47.562Z,6.03
2022-09-14T13:59:11.022Z,4.32
2022-09-14T14:02:13.960Z,4.88
2022-09-14T14:05:23.895Z,5.95
2022-09-14T14:08:35.924Z,6.25
2022-09-14T14:11:37.746Z,4.25
2022-09-14T14:14:39.708Z,3.60
2022-09-14T14:17:41.849Z,3.88
2022-09-14T14:20:43.785Z,6.60
2022-09-14T14:24:11.679Z,4.97
2022-09-14T14:27:35.581Z,5.68
2022-09-14T14:30:40.522Z,5.38
2022-09-14T14:33:48.330Z,5.65
2022-09-14T14:36:50.620Z,4.78
2022-09-14T14:39:52.524Z,5.70
2022-09-14T14:42:57.352Z,5.60
2022-09-14T14:46:01.232Z,6.30
2022-09-14T14:49:03.230Z,4.10
2022-09-14T14:52:05.052Z,5.40
2022-09-14T14:55:07.388Z,4.28
2022-09-14T14:58:16.346Z,5.68
2022-09-14T15:01:18.219Z,3.97
2022-09-14T15:07:27.383Z,4.18
2022-09-14T15:13:31.646Z,5.15
2022-09-14T15:16:33.517Z,5.25
2022-09-14T15:19:35.641Z,4.32
2022-09-14T15:22:38.028Z,4.22
2022-09-14T15:25:40.118Z,5.13
2022-09-14T15:28:42.237Z,4.50
2022-09-14T15:31:44.597Z,4.43
2022-09-14T15:34:46.737Z,3.38
2022-09-14T15:37:52.037Z,4.60
2022-09-14T15:40:54.072Z,5.45
2022-09-14T15:46:58.156Z,4.68
2022-09-14T15:50:00.291Z,3.45
2022-09-14T15:53:02.905Z,5.50
2022-09-14T15:56:13.256Z,3.95
2022-09-14T15:59:15.294Z,5.38
2022-09-14T16:02:17.448Z,4.00
2022-09-14T16:05:19.790Z,4.47
2022-09-14T16:08:21.771Z,3.97
2022-09-14T16:11:24.395Z,4.18
2022-09-14T16:14:26.263Z,4.25
2022-09-14T16:20:30.124Z,3.97
2022-09-14T16:23:33.685Z,4.75
2022-09-14T16:26:37.127Z,3.83
2022-09-14T16:29:39.405Z,2.70
2022-09-14T16:32:41.354Z,4.43
2022-09-14T16:38:48.172Z,4.57
2022-09-14T16:41:51.034Z,4.40
2022-09-14T16:44:53.043Z,4.32
2022-09-14T16:47:55.113Z,4.30
2022-09-14T16:50:58.466Z,3.80
2022-09-14T16:54:01.279Z,5.50
2022-09-14T16:57:03.567Z,3.88
2022-09-14T17:00:06.249Z,4.40
2022-09-14T17:03:08.233Z,6.28
2022-09-14T17:09:17.608Z,4.63
2022-09-14T17:12:19.782Z,4.88
2022-09-14T17:15:21.909Z,3.13
2022-09-14T17:18:24.121Z,3.28
2022-09-14T17:21:29.606Z,3.17
2022-09-14T17:24:31.897Z,4.97
2022-09-14T17:27:34.680Z,3.60
2022-09-14T17:33:39.009Z,3.35
2022-09-14T17:36:41.225Z,3.17
2022-09-14T17:39:43.379Z,4.88
2022-09-14T17:42:46.869Z,3.05
2022-09-14T17:45:57.046Z,3.28
2022-09-14T17:49:01.311Z,3.67
2022-09-14T17:52:03.487Z,4.43
2022-09-14T17:55:06.784Z,4.45
2022-09-14T17:58:09.998Z,7.53
2022-09-14T18:01:20.935Z,4.47
2022-09-14T18:04:23.019Z,3.55
2022-09-14T18:07:25.049Z,4.78
2022-09-14T18:13:28.841Z,2.90
2022-09-14T18:16:32.218Z,4.55
2022-09-14T18:19:34.152Z,6.60
2022-09-14T18:22:39.200Z,4.43
2022-09-14T18:25:41.482Z,3.35
2022-09-14T18:28:44.305Z,3.88
2022-09-14T18:31:46.617Z,4.97
2022-09-14T18:34:49.172Z,4.63
2022-09-14T18:37:52.015Z,3.70
2022-09-14T18:40:54.181Z,3.70
2022-09-14T18:43:56.264Z,6.00
2022-09-14T18:50:00.240Z,4.93
2022-09-14T18:53:02.174Z,3.53
2022-09-14T18:59:12.570Z,3.50
2022-09-14T19:02:14.542Z,5.97
2022-09-14T19:08:18.643Z,4.00
2022-09-14T19:11:23.466Z,3.85
2022-09-14T19:14:26.728Z,3.90
2022-09-14T19:17:28.810Z,3.63
2022-09-14T19:20:55.087Z,5.22
2022-09-14T19:23:58.325Z,4.65
2022-09-14T19:27:00.583Z,5.60
2022-09-14T19:30:02.654Z,5.28
2022-09-14T19:33:04.785Z,5.88
2022-09-14T19:36:12.516Z,4.97
2022-09-14T19:39:14.993Z,6.38
2022-09-14T19:42:17.279Z,5.20
2022-09-14T19:45:19.659Z,5.70
2022-09-14T19:48:21.691Z,6.13
2022-09-14T19:54:27.582Z,5.88
2022-09-14T19:57:29.753Z,5.35
2022-09-14T20:00:33.515Z,5.25
2022-09-14T20:03:35.913Z,5.13
2022-09-14T20:06:42.322Z,7.32
2022-09-14T20:09:44.496Z,4.57
2022-09-14T20:12:46.394Z,5.22
2022-09-14T20:15:48.293Z,5.15
2022-09-14T20:18:51.741Z,7.10
2022-09-14T20:21:54.102Z,3.92
2022-09-14T20:24:55.946Z,6.15
2022-09-14T20:27:57.976Z,5.20
2022-09-14T20:34:03.979Z,4.93
2022-09-14T20:37:06.481Z,4.55
2022-09-14T20:40:09.530Z,6.05
2022-09-14T20:43:11.584Z,6.03
2022-09-14T20:49:19.821Z,4.63
2022-09-14T20:52:21.795Z,5.00
2022-09-14T20:55:23.693Z,4.75
2022-09-14T21:01:31.813Z,4.63
2022-09-14T21:04:35.289Z,5.15
2022-09-14T21:07:37.294Z,5.43
2022-09-14T21:10:41.261Z,6.45
2022-09-14T21:13:44.310Z,5.22
2022-09-14T21:16:49.256Z,6.97
2022-09-14T21:19:51.180Z,6.90
2022-09-14T21:25:56.544Z,6.05
2022-09-14T21:29:00.485Z,6.95
2022-09-14T21:32:06.841Z,5.63
2022-09-14T21:35:10.799Z,7.32
2022-09-14T21:41:14.497Z,7.18
2022-09-14T21:44:16.511Z,6.45
2022-09-14T21:50:20.647Z,5.53
2022-09-14T21:53:22.623Z,6.75
2022-09-14T21:56:26.342Z,7.40
2022-09-14T21:59:28.181Z,6.68
2022-09-14T22:05:32.117Z,6.65
2022-09-14T22:08:35.328Z,7.13
2022-09-14T22:11:38.187Z,7.82
2022-09-14T22:14:40.800Z,8.50
2022-09-14T22:17:42.671Z,7.63
2022-09-14T22:20:44.819Z,7.25
2022-09-14T22:23:55.132Z,6.97
2022-09-14T22:26:56.978Z,6.25
2022-09-14T22:29:58.795Z,5.70
2022-09-14T22:33:00.677Z,9.27
2022-09-14T22:36:04.091Z,4.85
2022-09-14T22:39:06.671Z,7.10
2022-09-14T22:42:08.914Z,5.28
2022-09-14T22:45:11.279Z,6.70
2022-09-14T22:48:13.150Z,6.78
2022-09-14T22:51:18.385Z,5.00
2022-09-14T22:54:20.233Z,6.57
2022-09-14T22:57:22.232Z,7.07
2022-09-14T23:03:25.855Z,4.07
2022-09-14T23:06:38.783Z,6.97
2022-09-14T23:09:41.279Z,4.85
2022-09-14T23:12:43.127Z,6.22
2022-09-14T23:15:45.215Z,5.38
2022-09-14T23:18:59.635Z,6.32
2022-09-14T23:22:01.601Z,5.22
2022-09-14T23:25:04.608Z,4.95
2022-09-14T23:28:07.673Z,5.03
2022-09-14T23:31:09.754Z,5.10
2022-09-14T23:34:11.845Z,5.45
2022-09-14T23:37:14.351Z,5.85
2022-09-14T23:40:16.382Z,7.55
2022-09-14T23:43:19.511Z,6.05
2022-09-14T23:46:21.917Z,6.20
2022-09-14T23:49:23.836Z,9.05
2022-09-14T23:52:25.715Z,4.57
2022-09-14T23:55:27.840Z,5.55
2022-09-14T23:58:30.026Z,6.03
